EXS1412 LEAL-EGSS
Flight info
| Callsign | EXS1412 |
|---|---|
| Flight time | 2h 15m |
| Altitude | 34000 |
| Route | MITOS N608 COMPI Y90 USKAR DCT MOPAS DCT GIROM DCT AGN DCT SECHE DCT UVELI DCT CNA DCT TUPAR UN861 DIKRO UM185 TELTU |
| Aircraft | A321/M-SDE3FGHIRWY/LB1 |
Departure
| Time | 2026-05-06 21:32 |
|---|---|
| Airport | Alicante-Elche Miguel Hernández Airport (LEAL) |
Arrival
| Time | 2026-05-06 23:47 |
|---|---|
| Airport | London Stansted Airport (EGSS) |
| Time | Latitude | Longitude | Altitude | Speed | Heading |
|---|---|---|---|---|---|
| 2026-05-06 20:56 | 38.28514 | -0.55177 | 93 ft | 0 kts | 9° |
| 2026-05-06 21:22 | 38.28507 | -0.55178 | 92 ft | 4 kts | 9° |
| 2026-05-06 21:22 | 38.28481 | -0.55184 | 93 ft | 4 kts | 9° |
| 2026-05-06 21:22 | 38.28458 | -0.55188 | 91 ft | 4 kts | 353° |
| 2026-05-06 21:23 | 38.28440 | -0.55176 | 91 ft | 4 kts | 292° |
| 2026-05-06 21:23 | 38.28434 | -0.55153 | 90 ft | 0 kts | 279° |
| 2026-05-06 21:25 | 38.28435 | -0.55158 | 90 ft | 3 kts | 279° |
| 2026-05-06 21:25 | 38.28444 | -0.55221 | 92 ft | 11 kts | 280° |
| 2026-05-06 21:25 | 38.28444 | -0.55322 | 94 ft | 9 kts | 259° |
| 2026-05-06 21:25 | 38.28464 | -0.55403 | 97 ft | 14 kts | 288° |
| 2026-05-06 21:26 | 38.28482 | -0.55510 | 99 ft | 11 kts | 280° |
| 2026-05-06 21:26 | 38.28440 | -0.55592 | 98 ft | 15 kts | 180° |
| 2026-05-06 21:26 | 38.28380 | -0.55672 | 97 ft | 11 kts | 278° |
| 2026-05-06 21:26 | 38.28387 | -0.55765 | 97 ft | 12 kts | 277° |
| 2026-05-06 21:27 | 38.28404 | -0.55894 | 96 ft | 15 kts | 280° |
| 2026-05-06 21:27 | 38.28422 | -0.56018 | 97 ft | 14 kts | 281° |
| 2026-05-06 21:27 | 38.28439 | -0.56131 | 97 ft | 12 kts | 281° |
| 2026-05-06 21:27 | 38.28456 | -0.56252 | 100 ft | 14 kts | 280° |
| 2026-05-06 21:28 | 38.28471 | -0.56363 | 105 ft | 14 kts | 280° |
| 2026-05-06 21:28 | 38.28487 | -0.56475 | 111 ft | 11 kts | 280° |
| 2026-05-06 21:28 | 38.28502 | -0.56584 | 114 ft | 17 kts | 280° |
| 2026-05-06 21:28 | 38.28525 | -0.56744 | 123 ft | 17 kts | 279° |
| 2026-05-06 21:29 | 38.28544 | -0.56881 | 127 ft | 16 kts | 279° |
| 2026-05-06 21:29 | 38.28570 | -0.57072 | 137 ft | 26 kts | 281° |
| 2026-05-06 21:29 | 38.28599 | -0.57274 | 146 ft | 20 kts | 281° |
| 2026-05-06 21:29 | 38.28587 | -0.57409 | 150 ft | 13 kts | 218° |
| 2026-05-06 21:30 | 38.28551 | -0.57426 | 150 ft | 0 kts | 193° |
| 2026-05-06 21:30 | 38.28548 | -0.57427 | 150 ft | 3 kts | 193° |
| 2026-05-06 21:30 | 38.28516 | -0.57436 | 150 ft | 7 kts | 190° |
| 2026-05-06 21:31 | 38.28460 | -0.57427 | 152 ft | 8 kts | 150° |
| 2026-05-06 21:31 | 38.28431 | -0.57341 | 149 ft | 18 kts | 103° |
| 2026-05-06 21:31 | 38.28358 | -0.56822 | 134 ft | 105 kts | 100° |
| 2026-05-06 21:31 | 38.28186 | -0.55578 | 112 ft | 175 kts | 99° |
| 2026-05-06 21:32 | 38.27963 | -0.53997 | 893 ft | 182 kts | 100° |
| 2026-05-06 21:32 | 38.27440 | -0.50794 | 2640 ft | 196 kts | 98° |
| 2026-05-06 21:32 | 38.27566 | -0.48999 | 2794 ft | 216 kts | 71° |
| 2026-05-06 21:33 | 38.28357 | -0.47250 | 2938 ft | 242 kts | 58° |
| 2026-05-06 21:33 | 38.29316 | -0.45399 | 3426 ft | 255 kts | 57° |
| 2026-05-06 21:33 | 38.30308 | -0.43499 | 4165 ft | 260 kts | 57° |
| 2026-05-06 21:33 | 38.31318 | -0.41571 | 4920 ft | 263 kts | 57° |
| 2026-05-06 21:34 | 38.32340 | -0.39615 | 5650 ft | 267 kts | 58° |
| 2026-05-06 21:34 | 38.33165 | -0.37491 | 6349 ft | 270 kts | 69° |
| 2026-05-06 21:34 | 38.33858 | -0.35252 | 7053 ft | 273 kts | 69° |
| 2026-05-06 21:34 | 38.34557 | -0.32982 | 7736 ft | 277 kts | 68° |
| 2026-05-06 21:35 | 38.35263 | -0.30680 | 8413 ft | 281 kts | 68° |
| 2026-05-06 21:35 | 38.35971 | -0.28379 | 9080 ft | 285 kts | 67° |
| 2026-05-06 21:35 | 38.36730 | -0.25987 | 9763 ft | 289 kts | 66° |
| 2026-05-06 21:35 | 38.37521 | -0.23606 | 10220 ft | 300 kts | 65° |
| 2026-05-06 21:36 | 38.38367 | -0.21106 | 10343 ft | 322 kts | 65° |
| 2026-05-06 21:36 | 38.39277 | -0.18416 | 10481 ft | 342 kts | 66° |
| 2026-05-06 21:36 | 38.40243 | -0.15549 | 10604 ft | 361 kts | 66° |
| 2026-05-06 21:36 | 38.41244 | -0.12555 | 10955 ft | 370 kts | 66° |
| 2026-05-06 21:37 | 38.42270 | -0.09525 | 11465 ft | 375 kts | 63° |
| 2026-05-06 21:37 | 38.43672 | -0.06698 | 11986 ft | 379 kts | 50° |
| 2026-05-06 21:37 | 38.45560 | -0.04341 | 12522 ft | 382 kts | 36° |
| 2026-05-06 21:37 | 38.47843 | -0.02595 | 13034 ft | 385 kts | 22° |
| 2026-05-06 21:38 | 38.50399 | -0.01567 | 13532 ft | 387 kts | 8° |
| 2026-05-06 21:38 | 38.53084 | -0.01303 | 14008 ft | 389 kts | 358° |
| 2026-05-06 21:38 | 38.55800 | -0.01300 | 14482 ft | 391 kts | 358° |
| 2026-05-06 21:38 | 38.58534 | -0.01293 | 14975 ft | 394 kts | 358° |
| 2026-05-06 21:39 | 38.61285 | -0.01281 | 15448 ft | 396 kts | 358° |
| 2026-05-06 21:39 | 38.64044 | -0.01264 | 15905 ft | 399 kts | 358° |
| 2026-05-06 21:39 | 38.66828 | -0.01244 | 16361 ft | 401 kts | 358° |
| 2026-05-06 21:39 | 38.69627 | -0.01223 | 16796 ft | 403 kts | 358° |
| 2026-05-06 21:40 | 38.72445 | -0.01202 | 17212 ft | 406 kts | 358° |
| 2026-05-06 21:40 | 38.75276 | -0.01180 | 17617 ft | 409 kts | 358° |
| 2026-05-06 21:40 | 38.78127 | -0.01161 | 18020 ft | 411 kts | 358° |
| 2026-05-06 21:40 | 38.81003 | -0.01141 | 18378 ft | 414 kts | 358° |
| 2026-05-06 21:41 | 38.83890 | -0.01122 | 18716 ft | 417 kts | 358° |
| 2026-05-06 21:41 | 38.86801 | -0.01102 | 19049 ft | 420 kts | 357° |
| 2026-05-06 21:41 | 38.88739 | -0.01088 | 19270 ft | 422 kts | 357° |
| 2026-05-06 21:41 | 38.92645 | -0.01058 | 19718 ft | 425 kts | 357° |
| 2026-05-06 21:42 | 38.95612 | -0.01038 | 20054 ft | 428 kts | 357° |
| 2026-05-06 21:42 | 38.98604 | -0.01017 | 20401 ft | 431 kts | 357° |
| 2026-05-06 21:42 | 39.01611 | -0.00996 | 20750 ft | 434 kts | 357° |
| 2026-05-06 21:42 | 39.04639 | -0.00979 | 21105 ft | 436 kts | 356° |
| 2026-05-06 21:43 | 39.06693 | -0.00968 | 21344 ft | 438 kts | 356° |
| 2026-05-06 21:43 | 39.09754 | -0.00952 | 21722 ft | 441 kts | 356° |
| 2026-05-06 21:43 | 39.12831 | -0.00935 | 22072 ft | 443 kts | 356° |
| 2026-05-06 21:43 | 39.15923 | -0.00913 | 22432 ft | 446 kts | 356° |
| 2026-05-06 21:44 | 39.18993 | -0.00889 | 22784 ft | 448 kts | 356° |
| 2026-05-06 21:44 | 39.22119 | -0.00865 | 23149 ft | 450 kts | 356° |
| 2026-05-06 21:44 | 39.25297 | -0.00843 | 23517 ft | 452 kts | 356° |
| 2026-05-06 21:44 | 39.28407 | -0.00821 | 23814 ft | 454 kts | 356° |
| 2026-05-06 21:45 | 39.31574 | -0.00800 | 24108 ft | 456 kts | 356° |
| 2026-05-06 21:45 | 39.34757 | -0.00571 | 24395 ft | 461 kts | 4° |
| 2026-05-06 21:45 | 39.37918 | 0.00248 | 24679 ft | 468 kts | 12° |
| 2026-05-06 21:45 | 39.41058 | 0.01407 | 24959 ft | 470 kts | 12° |
| 2026-05-06 21:46 | 39.44211 | 0.02574 | 25236 ft | 472 kts | 12° |
| 2026-05-06 21:46 | 39.47376 | 0.03747 | 25495 ft | 475 kts | 12° |
| 2026-05-06 21:46 | 39.50552 | 0.04922 | 25764 ft | 477 kts | 12° |
| 2026-05-06 21:46 | 39.53765 | 0.06112 | 26018 ft | 480 kts | 12° |
| 2026-05-06 21:47 | 39.56984 | 0.07305 | 26266 ft | 482 kts | 12° |
| 2026-05-06 21:47 | 39.60217 | 0.08500 | 26504 ft | 484 kts | 12° |
| 2026-05-06 21:47 | 39.63468 | 0.09701 | 26741 ft | 487 kts | 12° |
| 2026-05-06 21:47 | 39.66733 | 0.10908 | 26955 ft | 489 kts | 12° |
| 2026-05-06 21:48 | 39.70008 | 0.12124 | 27159 ft | 491 kts | 12° |
| 2026-05-06 21:48 | 39.73295 | 0.13349 | 27350 ft | 493 kts | 12° |
| 2026-05-06 21:48 | 39.76600 | 0.14585 | 27520 ft | 494 kts | 12° |
| 2026-05-06 21:48 | 39.79899 | 0.15819 | 27698 ft | 496 kts | 12° |
| 2026-05-06 21:49 | 39.83180 | 0.17047 | 27923 ft | 496 kts | 12° |
| 2026-05-06 21:49 | 39.86535 | 0.18303 | 28166 ft | 496 kts | 12° |
| 2026-05-06 21:49 | 39.89808 | 0.19528 | 28387 ft | 496 kts | 12° |
| 2026-05-06 21:49 | 39.93126 | 0.20771 | 28622 ft | 496 kts | 11° |
| 2026-05-06 21:50 | 39.96437 | 0.22015 | 28862 ft | 496 kts | 11° |
| 2026-05-06 21:50 | 39.99749 | 0.23259 | 29086 ft | 496 kts | 11° |
| 2026-05-06 21:50 | 40.03068 | 0.24503 | 29316 ft | 496 kts | 11° |
| 2026-05-06 21:50 | 40.06380 | 0.25744 | 29547 ft | 496 kts | 11° |
| 2026-05-06 21:51 | 40.09694 | 0.26984 | 29774 ft | 496 kts | 11° |
| 2026-05-06 21:51 | 40.13012 | 0.28224 | 29987 ft | 496 kts | 11° |
| 2026-05-06 21:51 | 40.16323 | 0.29469 | 30194 ft | 495 kts | 11° |
| 2026-05-06 21:51 | 40.19634 | 0.30719 | 30390 ft | 495 kts | 11° |
| 2026-05-06 21:52 | 40.22945 | 0.31969 | 30594 ft | 495 kts | 11° |
| 2026-05-06 21:52 | 40.26244 | 0.33219 | 30802 ft | 495 kts | 11° |
| 2026-05-06 21:52 | 40.29555 | 0.34476 | 31017 ft | 494 kts | 11° |
| 2026-05-06 21:52 | 40.32855 | 0.35729 | 31228 ft | 494 kts | 11° |
| 2026-05-06 21:53 | 40.36144 | 0.36979 | 31440 ft | 493 kts | 11° |
| 2026-05-06 21:53 | 40.39438 | 0.38231 | 31673 ft | 492 kts | 11° |
| 2026-05-06 21:53 | 40.42728 | 0.39481 | 31897 ft | 491 kts | 11° |
| 2026-05-06 21:53 | 40.46012 | 0.40729 | 32125 ft | 491 kts | 11° |
| 2026-05-06 21:54 | 40.49284 | 0.41975 | 32358 ft | 490 kts | 11° |
| 2026-05-06 21:54 | 40.52559 | 0.43221 | 32599 ft | 489 kts | 11° |
| 2026-05-06 21:54 | 40.55818 | 0.44465 | 32836 ft | 488 kts | 11° |
| 2026-05-06 21:54 | 40.59036 | 0.45694 | 33078 ft | 487 kts | 11° |
| 2026-05-06 21:55 | 40.62291 | 0.46940 | 33301 ft | 486 kts | 11° |
| 2026-05-06 21:55 | 40.65530 | 0.48185 | 33541 ft | 485 kts | 11° |
| 2026-05-06 21:55 | 40.68771 | 0.49428 | 33798 ft | 484 kts | 10° |
| 2026-05-06 21:55 | 40.72002 | 0.50668 | 33958 ft | 484 kts | 10° |
| 2026-05-06 21:56 | 40.78436 | 0.53144 | 33986 ft | 480 kts | 11° |
| 2026-05-06 21:56 | 40.84842 | 0.55615 | 33987 ft | 479 kts | 11° |
| 2026-05-06 21:57 | 40.91240 | 0.58083 | 33978 ft | 478 kts | 11° |
| 2026-05-06 21:57 | 40.97624 | 0.60541 | 33981 ft | 477 kts | 11° |
| 2026-05-06 21:58 | 41.04004 | 0.63009 | 33984 ft | 478 kts | 11° |
| 2026-05-06 21:58 | 41.10385 | 0.65492 | 33980 ft | 478 kts | 11° |
| 2026-05-06 21:59 | 41.16767 | 0.67983 | 33979 ft | 478 kts | 11° |
| 2026-05-06 21:59 | 41.23152 | 0.70480 | 33985 ft | 478 kts | 11° |
| 2026-05-06 22:00 | 41.29530 | 0.72969 | 33991 ft | 478 kts | 11° |
| 2026-05-06 22:00 | 41.35867 | 0.75436 | 33995 ft | 477 kts | 11° |
| 2026-05-06 22:01 | 41.42234 | 0.77927 | 33995 ft | 477 kts | 11° |
| 2026-05-06 22:01 | 41.48608 | 0.80432 | 33993 ft | 477 kts | 11° |
| 2026-05-06 22:02 | 41.54963 | 0.82946 | 33996 ft | 477 kts | 11° |
| 2026-05-06 22:02 | 41.61324 | 0.85458 | 33995 ft | 476 kts | 11° |
| 2026-05-06 22:03 | 41.67672 | 0.87970 | 33998 ft | 476 kts | 11° |
| 2026-05-06 22:03 | 41.74020 | 0.90479 | 33999 ft | 475 kts | 11° |
| 2026-05-06 22:04 | 41.80363 | 0.92992 | 34018 ft | 475 kts | 11° |
| 2026-05-06 22:04 | 41.86684 | 0.95505 | 34001 ft | 473 kts | 11° |
| 2026-05-06 22:05 | 41.92985 | 0.98018 | 34009 ft | 472 kts | 11° |
| 2026-05-06 22:05 | 41.99284 | 1.00543 | 34017 ft | 472 kts | 11° |
| 2026-05-06 22:06 | 42.05542 | 1.03049 | 34014 ft | 471 kts | 11° |
| 2026-05-06 22:06 | 42.11834 | 1.05493 | 34020 ft | 469 kts | 7° |
| 2026-05-06 22:07 | 42.18223 | 1.06179 | 34018 ft | 455 kts | 349° |
| 2026-05-06 22:07 | 42.24522 | 1.05466 | 34018 ft | 454 kts | 349° |
| 2026-05-06 22:08 | 42.30822 | 1.04793 | 34021 ft | 454 kts | 349° |
| 2026-05-06 22:08 | 42.37127 | 1.04121 | 34027 ft | 455 kts | 349° |
| 2026-05-06 22:09 | 42.43437 | 1.03454 | 34026 ft | 455 kts | 350° |
| 2026-05-06 22:09 | 42.49746 | 1.02769 | 34033 ft | 455 kts | 349° |
| 2026-05-06 22:10 | 42.56051 | 1.02066 | 34039 ft | 455 kts | 349° |
| 2026-05-06 22:10 | 42.62362 | 1.01372 | 34050 ft | 455 kts | 350° |
| 2026-05-06 22:11 | 42.68668 | 1.00693 | 34054 ft | 455 kts | 350° |
| 2026-05-06 22:11 | 42.74969 | 1.00008 | 34069 ft | 455 kts | 350° |
| 2026-05-06 22:12 | 42.81278 | 0.99305 | 34073 ft | 455 kts | 350° |
| 2026-05-06 22:12 | 42.87591 | 0.98608 | 34067 ft | 454 kts | 350° |
| 2026-05-06 22:13 | 42.93890 | 0.97922 | 34073 ft | 454 kts | 350° |
| 2026-05-06 22:13 | 43.00187 | 0.97232 | 34090 ft | 454 kts | 350° |
| 2026-05-06 22:14 | 43.06492 | 0.96531 | 34085 ft | 454 kts | 350° |
| 2026-05-06 22:14 | 43.12775 | 0.95831 | 34071 ft | 453 kts | 350° |
| 2026-05-06 22:15 | 43.19017 | 0.95135 | 34067 ft | 453 kts | 350° |
| 2026-05-06 22:15 | 43.25313 | 0.94438 | 34065 ft | 453 kts | 350° |
| 2026-05-06 22:16 | 43.31599 | 0.93736 | 34069 ft | 453 kts | 351° |
| 2026-05-06 22:16 | 43.37904 | 0.93033 | 34069 ft | 453 kts | 351° |
| 2026-05-06 22:17 | 43.44152 | 0.92326 | 34068 ft | 453 kts | 351° |
| 2026-05-06 22:17 | 43.50440 | 0.91616 | 34058 ft | 453 kts | 351° |
| 2026-05-06 22:18 | 43.56723 | 0.90910 | 34058 ft | 453 kts | 351° |
| 2026-05-06 22:18 | 43.63004 | 0.90209 | 34052 ft | 453 kts | 351° |
| 2026-05-06 22:19 | 43.69293 | 0.89509 | 34053 ft | 453 kts | 351° |
| 2026-05-06 22:19 | 43.75567 | 0.88795 | 34049 ft | 452 kts | 352° |
| 2026-05-06 22:20 | 43.81832 | 0.88085 | 34046 ft | 452 kts | 352° |
| 2026-05-06 22:20 | 43.88017 | 0.87100 | 34045 ft | 447 kts | 343° |
| 2026-05-06 22:21 | 43.93812 | 0.84082 | 34040 ft | 441 kts | 332° |
| 2026-05-06 22:21 | 43.99281 | 0.80543 | 34039 ft | 441 kts | 332° |
| 2026-05-06 22:22 | 44.04866 | 0.76938 | 34043 ft | 442 kts | 332° |
| 2026-05-06 22:22 | 44.10450 | 0.73333 | 34042 ft | 442 kts | 332° |
| 2026-05-06 22:23 | 44.16016 | 0.69710 | 34034 ft | 442 kts | 332° |
| 2026-05-06 22:23 | 44.21582 | 0.66081 | 34032 ft | 442 kts | 332° |
| 2026-05-06 22:24 | 44.27159 | 0.62454 | 34031 ft | 442 kts | 332° |
| 2026-05-06 22:24 | 44.32727 | 0.58827 | 34029 ft | 442 kts | 332° |
| 2026-05-06 22:25 | 44.38299 | 0.55186 | 34028 ft | 442 kts | 332° |
| 2026-05-06 22:25 | 44.43843 | 0.51557 | 34024 ft | 442 kts | 332° |
| 2026-05-06 22:26 | 44.49411 | 0.47880 | 34017 ft | 442 kts | 332° |
| 2026-05-06 22:26 | 44.54968 | 0.44179 | 34019 ft | 442 kts | 332° |
| 2026-05-06 22:27 | 44.60522 | 0.40478 | 34018 ft | 442 kts | 332° |
| 2026-05-06 22:27 | 44.66078 | 0.36775 | 34018 ft | 442 kts | 332° |
| 2026-05-06 22:28 | 44.71640 | 0.33065 | 34009 ft | 442 kts | 332° |
| 2026-05-06 22:28 | 44.77202 | 0.29341 | 34014 ft | 442 kts | 332° |
| 2026-05-06 22:29 | 44.82760 | 0.25616 | 34012 ft | 442 kts | 333° |
| 2026-05-06 22:29 | 44.88319 | 0.21886 | 34004 ft | 442 kts | 333° |
| 2026-05-06 22:30 | 44.93849 | 0.18164 | 34010 ft | 443 kts | 333° |
| 2026-05-06 22:30 | 44.99428 | 0.14397 | 34005 ft | 443 kts | 333° |
| 2026-05-06 22:31 | 45.04970 | 0.10643 | 34006 ft | 442 kts | 333° |
| 2026-05-06 22:31 | 45.10502 | 0.06891 | 34009 ft | 442 kts | 333° |
| 2026-05-06 22:32 | 45.16073 | 0.03104 | 34001 ft | 442 kts | 333° |
| 2026-05-06 22:32 | 45.21610 | -0.00659 | 34007 ft | 442 kts | 333° |
| 2026-05-06 22:33 | 45.27137 | -0.04435 | 34005 ft | 442 kts | 333° |
| 2026-05-06 22:33 | 45.32700 | -0.08234 | 33998 ft | 443 kts | 333° |
| 2026-05-06 22:34 | 45.38203 | -0.11999 | 34001 ft | 443 kts | 333° |
| 2026-05-06 22:34 | 45.42836 | -0.15185 | 34009 ft | 443 kts | 333° |
| 2026-05-06 22:35 | 45.48408 | -0.19018 | 34013 ft | 443 kts | 333° |
| 2026-05-06 22:35 | 45.53945 | -0.22825 | 34020 ft | 444 kts | 333° |
| 2026-05-06 22:36 | 45.59512 | -0.26674 | 34023 ft | 444 kts | 333° |
| 2026-05-06 22:36 | 45.65042 | -0.30509 | 34025 ft | 445 kts | 335° |
| 2026-05-06 22:37 | 45.70935 | -0.33404 | 34025 ft | 445 kts | 342° |
| 2026-05-06 22:37 | 45.76857 | -0.36055 | 34023 ft | 446 kts | 342° |
| 2026-05-06 22:38 | 45.82749 | -0.38717 | 34017 ft | 446 kts | 342° |
| 2026-05-06 22:38 | 45.88680 | -0.41417 | 34015 ft | 446 kts | 342° |
| 2026-05-06 22:39 | 45.94581 | -0.44101 | 34010 ft | 445 kts | 342° |
| 2026-05-06 22:39 | 46.00497 | -0.46785 | 34006 ft | 445 kts | 342° |
| 2026-05-06 22:40 | 46.06413 | -0.49480 | 34012 ft | 445 kts | 342° |
| 2026-05-06 22:40 | 46.12292 | -0.52173 | 34016 ft | 445 kts | 342° |
| 2026-05-06 22:41 | 46.21155 | -0.56234 | 34016 ft | 444 kts | 342° |
| 2026-05-06 22:42 | 46.27011 | -0.58923 | 34011 ft | 444 kts | 342° |
| 2026-05-06 22:42 | 46.32915 | -0.61652 | 34011 ft | 444 kts | 342° |
| 2026-05-06 22:43 | 46.38785 | -0.64367 | 34012 ft | 445 kts | 342° |
| 2026-05-06 22:43 | 46.44792 | -0.66600 | 34013 ft | 445 kts | 353° |
| 2026-05-06 22:44 | 46.50960 | -0.67620 | 34016 ft | 445 kts | 353° |
| 2026-05-06 22:44 | 46.57078 | -0.68643 | 34018 ft | 445 kts | 353° |
| 2026-05-06 22:45 | 46.63246 | -0.69680 | 34017 ft | 445 kts | 353° |
| 2026-05-06 22:45 | 46.69368 | -0.70710 | 34020 ft | 445 kts | 353° |
| 2026-05-06 22:46 | 46.75528 | -0.71749 | 34019 ft | 445 kts | 353° |
| 2026-05-06 22:46 | 46.81682 | -0.72799 | 34018 ft | 445 kts | 353° |
| 2026-05-06 22:47 | 46.87829 | -0.73854 | 34012 ft | 445 kts | 353° |
| 2026-05-06 22:47 | 46.93949 | -0.74890 | 34012 ft | 444 kts | 353° |
| 2026-05-06 22:48 | 47.00112 | -0.75934 | 34005 ft | 445 kts | 353° |
| 2026-05-06 22:48 | 47.06263 | -0.76988 | 34003 ft | 445 kts | 353° |
| 2026-05-06 22:49 | 47.12385 | -0.78034 | 33997 ft | 445 kts | 353° |
| 2026-05-06 22:49 | 47.18547 | -0.79097 | 33998 ft | 445 kts | 353° |
| 2026-05-06 22:50 | 47.24664 | -0.80146 | 33994 ft | 445 kts | 354° |
| 2026-05-06 22:50 | 47.30827 | -0.81212 | 33997 ft | 445 kts | 354° |
| 2026-05-06 22:51 | 47.36990 | -0.82278 | 33993 ft | 445 kts | 354° |
| 2026-05-06 22:51 | 47.43160 | -0.83339 | 33994 ft | 445 kts | 354° |
| 2026-05-06 22:52 | 47.49332 | -0.84414 | 33995 ft | 446 kts | 354° |
| 2026-05-06 22:52 | 47.55458 | -0.85466 | 34001 ft | 446 kts | 355° |
| 2026-05-06 22:53 | 47.61700 | -0.86274 | 34000 ft | 446 kts | 356° |
| 2026-05-06 22:53 | 47.67881 | -0.86939 | 34003 ft | 447 kts | 356° |
| 2026-05-06 22:54 | 47.74100 | -0.87646 | 34006 ft | 448 kts | 356° |
| 2026-05-06 22:54 | 47.80305 | -0.88411 | 34010 ft | 448 kts | 356° |
| 2026-05-06 22:55 | 47.86498 | -0.89184 | 34014 ft | 448 kts | 356° |
| 2026-05-06 22:55 | 47.92722 | -0.89953 | 34021 ft | 448 kts | 356° |
| 2026-05-06 22:56 | 47.98917 | -0.90720 | 34020 ft | 448 kts | 356° |
| 2026-05-06 22:56 | 48.05148 | -0.91498 | 34023 ft | 448 kts | 356° |
| 2026-05-06 22:57 | 48.11360 | -0.92272 | 34021 ft | 448 kts | 356° |
| 2026-05-06 22:57 | 48.17555 | -0.93037 | 34020 ft | 448 kts | 356° |
| 2026-05-06 22:58 | 48.23776 | -0.93812 | 34026 ft | 448 kts | 356° |
| 2026-05-06 22:58 | 48.30001 | -0.94583 | 34022 ft | 449 kts | 356° |
| 2026-05-06 22:59 | 48.36244 | -0.95365 | 34021 ft | 449 kts | 356° |
| 2026-05-06 22:59 | 48.42479 | -0.96149 | 34023 ft | 449 kts | 356° |
| 2026-05-06 23:00 | 48.48678 | -0.96930 | 34030 ft | 449 kts | 356° |
| 2026-05-06 23:00 | 48.54931 | -0.97719 | 34034 ft | 449 kts | 356° |
| 2026-05-06 23:01 | 48.61127 | -0.98507 | 34035 ft | 449 kts | 356° |
| 2026-05-06 23:01 | 48.67386 | -0.99293 | 34036 ft | 449 kts | 356° |
| 2026-05-06 23:02 | 48.73636 | -1.00085 | 34035 ft | 450 kts | 356° |
| 2026-05-06 23:02 | 48.79838 | -1.00883 | 34038 ft | 450 kts | 356° |
| 2026-05-06 23:03 | 48.86086 | -1.01683 | 34035 ft | 450 kts | 356° |
| 2026-05-06 23:03 | 48.92324 | -1.02480 | 34036 ft | 450 kts | 356° |
| 2026-05-06 23:04 | 48.98539 | -1.03279 | 34031 ft | 449 kts | 356° |
| 2026-05-06 23:04 | 49.04787 | -1.04087 | 34021 ft | 449 kts | 356° |
| 2026-05-06 23:05 | 49.10988 | -1.04894 | 34030 ft | 449 kts | 356° |
| 2026-05-06 23:05 | 49.17217 | -1.05695 | 34033 ft | 449 kts | 356° |
| 2026-05-06 23:06 | 49.23469 | -1.06501 | 34028 ft | 449 kts | 356° |
| 2026-05-06 23:06 | 49.29674 | -1.07309 | 34032 ft | 449 kts | 356° |
| 2026-05-06 23:07 | 49.35908 | -1.08129 | 34031 ft | 449 kts | 356° |
| 2026-05-06 23:07 | 49.42113 | -1.08942 | 34020 ft | 449 kts | 356° |
| 2026-05-06 23:08 | 49.47326 | -1.09623 | 34028 ft | 450 kts | 356° |
| 2026-05-06 23:08 | 49.56885 | -1.09532 | 34018 ft | 448 kts | 14° |
| 2026-05-06 23:09 | 49.59858 | -1.08098 | 34023 ft | 447 kts | 24° |
| 2026-05-06 23:09 | 49.65117 | -1.03208 | 34017 ft | 444 kts | 39° |
| 2026-05-06 23:10 | 49.70027 | -0.97375 | 34013 ft | 445 kts | 39° |
| 2026-05-06 23:10 | 49.75285 | -0.92283 | 34012 ft | 447 kts | 24° |
| 2026-05-06 23:11 | 49.81267 | -0.89877 | 34016 ft | 449 kts | 6° |
| 2026-05-06 23:11 | 49.87515 | -0.89003 | 34014 ft | 450 kts | 6° |
| 2026-05-06 23:12 | 49.93778 | -0.88114 | 34015 ft | 451 kts | 6° |
| 2026-05-06 23:12 | 50.00006 | -0.87225 | 34023 ft | 452 kts | 5° |
| 2026-05-06 23:13 | 50.06274 | -0.86338 | 34020 ft | 452 kts | 5° |
| 2026-05-06 23:13 | 50.12545 | -0.85443 | 34016 ft | 452 kts | 5° |
| 2026-05-06 23:14 | 50.18820 | -0.84546 | 34017 ft | 452 kts | 5° |
| 2026-05-06 23:14 | 50.25119 | -0.83639 | 33823 ft | 453 kts | 5° |
| 2026-05-06 23:14 | 50.28248 | -0.83193 | 32602 ft | 462 kts | 5° |
| 2026-05-06 23:15 | 50.31471 | -0.82730 | 31611 ft | 465 kts | 5° |
| 2026-05-06 23:15 | 50.34699 | -0.82261 | 30751 ft | 464 kts | 5° |
| 2026-05-06 23:15 | 50.37922 | -0.81791 | 29654 ft | 468 kts | 5° |
| 2026-05-06 23:15 | 50.41170 | -0.81321 | 28625 ft | 467 kts | 5° |
| 2026-05-06 23:16 | 50.44422 | -0.80851 | 27618 ft | 466 kts | 5° |
| 2026-05-06 23:16 | 50.47616 | -0.80390 | 26455 ft | 468 kts | 5° |
| 2026-05-06 23:16 | 50.50886 | -0.79916 | 25366 ft | 469 kts | 5° |
| 2026-05-06 23:16 | 50.54074 | -0.79452 | 24800 ft | 459 kts | 4° |
| 2026-05-06 23:17 | 50.57240 | -0.78989 | 24077 ft | 453 kts | 4° |
| 2026-05-06 23:17 | 50.60368 | -0.78530 | 23345 ft | 448 kts | 4° |
| 2026-05-06 23:17 | 50.63461 | -0.78073 | 22637 ft | 441 kts | 5° |
| 2026-05-06 23:17 | 50.66489 | -0.77626 | 22002 ft | 433 kts | 4° |
| 2026-05-06 23:18 | 50.69439 | -0.77193 | 21392 ft | 426 kts | 4° |
| 2026-05-06 23:18 | 50.72366 | -0.76765 | 20788 ft | 419 kts | 4° |
| 2026-05-06 23:18 | 50.75246 | -0.76343 | 20472 ft | 405 kts | 4° |
| 2026-05-06 23:18 | 50.77950 | -0.75944 | 20136 ft | 377 kts | 4° |
| 2026-05-06 23:19 | 50.80471 | -0.75405 | 19290 ft | 364 kts | 11° |
| 2026-05-06 23:19 | 50.82888 | -0.74299 | 18781 ft | 360 kts | 20° |
| 2026-05-06 23:19 | 50.85229 | -0.72788 | 18625 ft | 363 kts | 21° |
| 2026-05-06 23:19 | 50.87574 | -0.71279 | 18386 ft | 362 kts | 21° |
| 2026-05-06 23:20 | 50.89915 | -0.69788 | 18128 ft | 361 kts | 21° |
| 2026-05-06 23:20 | 50.92248 | -0.68302 | 17909 ft | 360 kts | 21° |
| 2026-05-06 23:20 | 50.94545 | -0.66832 | 17676 ft | 359 kts | 21° |
| 2026-05-06 23:20 | 50.96854 | -0.65347 | 17454 ft | 358 kts | 21° |
| 2026-05-06 23:21 | 50.99166 | -0.63853 | 17228 ft | 356 kts | 21° |
| 2026-05-06 23:21 | 51.01445 | -0.62379 | 16997 ft | 355 kts | 21° |
| 2026-05-06 23:21 | 51.03728 | -0.60900 | 16788 ft | 354 kts | 21° |
| 2026-05-06 23:21 | 51.06008 | -0.59422 | 16547 ft | 353 kts | 21° |
| 2026-05-06 23:22 | 51.08279 | -0.57946 | 16304 ft | 352 kts | 21° |
| 2026-05-06 23:22 | 51.10538 | -0.56476 | 16107 ft | 350 kts | 21° |
| 2026-05-06 23:22 | 51.12802 | -0.55001 | 15877 ft | 349 kts | 21° |
| 2026-05-06 23:22 | 51.15044 | -0.53541 | 15654 ft | 348 kts | 21° |
| 2026-05-06 23:23 | 51.17298 | -0.52073 | 15445 ft | 347 kts | 21° |
| 2026-05-06 23:23 | 51.19533 | -0.50613 | 15206 ft | 346 kts | 21° |
| 2026-05-06 23:23 | 51.21769 | -0.49150 | 14989 ft | 345 kts | 21° |
| 2026-05-06 23:23 | 51.23957 | -0.47718 | 14772 ft | 344 kts | 21° |
| 2026-05-06 23:24 | 51.26179 | -0.46264 | 14536 ft | 343 kts | 21° |
| 2026-05-06 23:24 | 51.28334 | -0.44847 | 14335 ft | 342 kts | 21° |
| 2026-05-06 23:24 | 51.30508 | -0.43414 | 14116 ft | 340 kts | 21° |
| 2026-05-06 23:24 | 51.32750 | -0.41941 | 13883 ft | 339 kts | 21° |
| 2026-05-06 23:25 | 51.34932 | -0.40507 | 13678 ft | 337 kts | 21° |
| 2026-05-06 23:25 | 51.37084 | -0.39093 | 13439 ft | 336 kts | 21° |
| 2026-05-06 23:25 | 51.39235 | -0.37679 | 13229 ft | 335 kts | 21° |
| 2026-05-06 23:25 | 51.41387 | -0.36259 | 13022 ft | 334 kts | 21° |
| 2026-05-06 23:26 | 51.43530 | -0.34838 | 12801 ft | 333 kts | 22° |
| 2026-05-06 23:26 | 51.45672 | -0.33312 | 12584 ft | 332 kts | 24° |
| 2026-05-06 23:26 | 51.47756 | -0.31727 | 12372 ft | 331 kts | 25° |
| 2026-05-06 23:26 | 51.49800 | -0.30131 | 12163 ft | 330 kts | 25° |
| 2026-05-06 23:27 | 51.51864 | -0.28510 | 11948 ft | 329 kts | 25° |
| 2026-05-06 23:27 | 51.53917 | -0.26904 | 11739 ft | 328 kts | 25° |
| 2026-05-06 23:27 | 51.55972 | -0.25311 | 11529 ft | 327 kts | 24° |
| 2026-05-06 23:27 | 51.58031 | -0.23724 | 11341 ft | 326 kts | 24° |
| 2026-05-06 23:28 | 51.60080 | -0.22150 | 11242 ft | 325 kts | 24° |
| 2026-05-06 23:28 | 51.62122 | -0.20583 | 11098 ft | 324 kts | 24° |
| 2026-05-06 23:28 | 51.64167 | -0.19015 | 10960 ft | 324 kts | 24° |
| 2026-05-06 23:28 | 51.66202 | -0.17449 | 10813 ft | 320 kts | 24° |
| 2026-05-06 23:29 | 51.68166 | -0.15931 | 10668 ft | 306 kts | 24° |
| 2026-05-06 23:29 | 51.70047 | -0.14475 | 10551 ft | 293 kts | 24° |
| 2026-05-06 23:29 | 51.71379 | -0.13441 | 10451 ft | 288 kts | 24° |
| 2026-05-06 23:29 | 51.73161 | -0.12056 | 10317 ft | 287 kts | 24° |
| 2026-05-06 23:30 | 51.74962 | -0.10664 | 10199 ft | 287 kts | 24° |
| 2026-05-06 23:30 | 51.76784 | -0.09318 | 9994 ft | 285 kts | 22° |
| 2026-05-06 23:30 | 51.78603 | -0.08048 | 9804 ft | 284 kts | 21° |
| 2026-05-06 23:30 | 51.80428 | -0.06799 | 9610 ft | 284 kts | 21° |
| 2026-05-06 23:31 | 51.82229 | -0.05566 | 9422 ft | 283 kts | 21° |
| 2026-05-06 23:31 | 51.84038 | -0.04318 | 9223 ft | 283 kts | 22° |
| 2026-05-06 23:31 | 51.85842 | -0.03061 | 9040 ft | 281 kts | 22° |
| 2026-05-06 23:31 | 51.87642 | -0.01800 | 8851 ft | 281 kts | 22° |
| 2026-05-06 23:32 | 51.89432 | -0.00543 | 8681 ft | 280 kts | 22° |
| 2026-05-06 23:32 | 51.91222 | 0.00720 | 8496 ft | 280 kts | 22° |
| 2026-05-06 23:32 | 51.93000 | 0.01978 | 8311 ft | 279 kts | 22° |
| 2026-05-06 23:32 | 51.94764 | 0.03225 | 8173 ft | 278 kts | 22° |
| 2026-05-06 23:33 | 51.96537 | 0.04477 | 8044 ft | 278 kts | 22° |
| 2026-05-06 23:33 | 51.98331 | 0.05716 | 7931 ft | 278 kts | 19° |
| 2026-05-06 23:33 | 52.00209 | 0.06291 | 7781 ft | 276 kts | 1° |
| 2026-05-06 23:33 | 52.02116 | 0.06390 | 7615 ft | 275 kts | 1° |
| 2026-05-06 23:34 | 52.03988 | 0.06486 | 7468 ft | 263 kts | 1° |
| 2026-05-06 23:34 | 52.05771 | 0.06582 | 7337 ft | 251 kts | 1° |
| 2026-05-06 23:34 | 52.07488 | 0.06682 | 7167 ft | 242 kts | 2° |
| 2026-05-06 23:34 | 52.09160 | 0.06775 | 7017 ft | 242 kts | 0° |
| 2026-05-06 23:35 | 52.10788 | 0.06224 | 6918 ft | 241 kts | 331° |
| 2026-05-06 23:35 | 52.11992 | 0.04368 | 6821 ft | 240 kts | 299° |
| 2026-05-06 23:35 | 52.12400 | 0.01785 | 6715 ft | 238 kts | 267° |
| 2026-05-06 23:35 | 52.11930 | -0.00732 | 6650 ft | 237 kts | 236° |
| 2026-05-06 23:36 | 52.10718 | -0.02494 | 6560 ft | 235 kts | 205° |
| 2026-05-06 23:36 | 52.09155 | -0.03138 | 6473 ft | 235 kts | 189° |
| 2026-05-06 23:36 | 52.07522 | -0.03582 | 6383 ft | 235 kts | 189° |
| 2026-05-06 23:36 | 52.05925 | -0.04019 | 6289 ft | 234 kts | 189° |
| 2026-05-06 23:37 | 52.04326 | -0.04457 | 6168 ft | 234 kts | 189° |
| 2026-05-06 23:37 | 52.02718 | -0.04901 | 6072 ft | 233 kts | 189° |
| 2026-05-06 23:37 | 52.01115 | -0.05309 | 5972 ft | 233 kts | 184° |
| 2026-05-06 23:37 | 51.99542 | -0.04835 | 5660 ft | 232 kts | 153° |
| 2026-05-06 23:38 | 51.98193 | -0.03387 | 5370 ft | 231 kts | 145° |
| 2026-05-06 23:38 | 51.96892 | -0.01911 | 5082 ft | 231 kts | 145° |
| 2026-05-06 23:38 | 51.95587 | -0.00438 | 4859 ft | 223 kts | 146° |
| 2026-05-06 23:38 | 51.94324 | 0.00981 | 4577 ft | 218 kts | 146° |
| 2026-05-06 23:39 | 51.93032 | 0.02242 | 4280 ft | 216 kts | 157° |
| 2026-05-06 23:39 | 51.91573 | 0.02789 | 4010 ft | 216 kts | 176° |
| 2026-05-06 23:39 | 51.90085 | 0.02527 | 3732 ft | 216 kts | 194° |
| 2026-05-06 23:39 | 51.88633 | 0.01905 | 3475 ft | 215 kts | 193° |
| 2026-05-06 23:40 | 51.87203 | 0.01305 | 3211 ft | 214 kts | 193° |
| 2026-05-06 23:40 | 51.85762 | 0.00706 | 2943 ft | 212 kts | 192° |
| 2026-05-06 23:40 | 51.84828 | 0.00337 | 2838 ft | 203 kts | 192° |
| 2026-05-06 23:40 | 51.83061 | -0.00332 | 2641 ft | 191 kts | 191° |
| 2026-05-06 23:41 | 51.81756 | -0.00817 | 2546 ft | 192 kts | 191° |
| 2026-05-06 23:41 | 51.80456 | -0.01300 | 2505 ft | 192 kts | 191° |
| 2026-05-06 23:41 | 51.79152 | -0.01787 | 2524 ft | 192 kts | 191° |
| 2026-05-06 23:41 | 51.77844 | -0.02258 | 2526 ft | 193 kts | 187° |
| 2026-05-06 23:42 | 51.76955 | -0.02300 | 2525 ft | 191 kts | 174° |
| 2026-05-06 23:42 | 51.75684 | -0.01734 | 2525 ft | 191 kts | 153° |
| 2026-05-06 23:42 | 51.74769 | -0.00226 | 2527 ft | 190 kts | 116° |
| 2026-05-06 23:42 | 51.74596 | 0.01859 | 2524 ft | 191 kts | 81° |
| 2026-05-06 23:43 | 51.75234 | 0.03697 | 2508 ft | 194 kts | 46° |
| 2026-05-06 23:43 | 51.76229 | 0.05175 | 2508 ft | 194 kts | 43° |
| 2026-05-06 23:43 | 51.77228 | 0.06646 | 2511 ft | 194 kts | 44° |
| 2026-05-06 23:43 | 51.78221 | 0.08120 | 2511 ft | 193 kts | 44° |
| 2026-05-06 23:44 | 51.79211 | 0.09594 | 2508 ft | 194 kts | 44° |
| 2026-05-06 23:44 | 51.80203 | 0.11072 | 2405 ft | 193 kts | 44° |
| 2026-05-06 23:44 | 51.81184 | 0.12534 | 2169 ft | 183 kts | 44° |
| 2026-05-06 23:44 | 51.82049 | 0.13823 | 1938 ft | 161 kts | 45° |
| 2026-05-06 23:45 | 51.82837 | 0.14999 | 1725 ft | 148 kts | 45° |
| 2026-05-06 23:45 | 51.83567 | 0.16091 | 1527 ft | 142 kts | 45° |
| 2026-05-06 23:45 | 51.84289 | 0.17171 | 1341 ft | 140 kts | 45° |
| 2026-05-06 23:45 | 51.85005 | 0.18243 | 1124 ft | 140 kts | 44° |
| 2026-05-06 23:46 | 51.85718 | 0.19311 | 923 ft | 139 kts | 44° |
| 2026-05-06 23:46 | 51.86425 | 0.20371 | 729 ft | 138 kts | 44° |
| 2026-05-06 23:46 | 51.87121 | 0.21413 | 542 ft | 137 kts | 43° |
| 2026-05-06 23:46 | 51.87828 | 0.22453 | 366 ft | 136 kts | 43° |
| 2026-05-06 23:47 | 51.88450 | 0.23405 | 343 ft | 98 kts | 45° |
| 2026-05-06 23:47 | 51.88801 | 0.23942 | 332 ft | 44 kts | 49° |
| 2026-05-06 23:47 | 51.88889 | 0.24258 | 352 ft | 15 kts | 74° |
| 2026-05-06 23:47 | 51.88903 | 0.24340 | 351 ft | 11 kts | 75° |
| 2026-05-06 23:48 | 51.88918 | 0.24426 | 351 ft | 0 kts | 75° |
| 2026-05-06 23:48 | 51.88918 | 0.24430 | 350 ft | 3 kts | 76° |
| 2026-05-06 23:48 | 51.88916 | 0.24476 | 356 ft | 6 kts | 101° |
| 2026-05-06 23:49 | 51.88913 | 0.24548 | 349 ft | 6 kts | 77° |
| 2026-05-06 23:49 | 51.88948 | 0.24630 | 353 ft | 10 kts | 46° |
| 2026-05-06 23:49 | 51.88996 | 0.24704 | 354 ft | 9 kts | 44° |
| 2026-05-06 23:49 | 51.89025 | 0.24792 | 352 ft | 10 kts | 84° |
| 2026-05-06 23:50 | 51.88994 | 0.24898 | 353 ft | 11 kts | 120° |
| 2026-05-06 23:50 | 51.88968 | 0.25007 | 352 ft | 2 kts | 111° |
| 2026-05-06 23:50 | 51.88961 | 0.25028 | 351 ft | 3 kts | 120° |
| 2026-05-06 23:51 | 51.88943 | 0.25068 | 354 ft | 10 kts | 129° |
| 2026-05-06 23:51 | 51.88909 | 0.25133 | 354 ft | 2 kts | 107° |
| 2026-05-06 23:51 | 51.88930 | 0.25194 | 355 ft | 5 kts | 47° |
| 2026-05-06 23:51 | 51.88947 | 0.25222 | 352 ft | 2 kts | 44° |
| 2026-05-06 23:52 | 51.88948 | 0.25223 | 352 ft | 0 kts | 44° |